Flight Track Log - Related Links

Times and Time Zones

All times are in EDT time to prevent confusion due to time zone crossing. See the DAL268 flight status page for this flight to view local times or setup timezone preferences in your user account.

Time Position Orientation Groundspeed Altitude Reporting Facility
EDT Latitude Longitude Course Direction KTS MPH feet Rate Location/Type
Fri 06:10:53 PM 33.6333 -84.3833 64° Northeast 190 219 2,600  Level Atlanta TRACON
Fri 06:11:59 PM 33.6333 -84.3000 90° East 259 298 4,300 2,143 Climbing Atlanta TRACON
Fri 06:12:59 PM 33.6333 -84.2000 90° East 282 325 7,100 2,632 Climbing Atlanta TRACON
Fri 06:13:00 PM 33.8632 -84.1313 101° East  Level Estimated
Fri 06:13:53 PM 33.6333 -84.1167 90° East 298 343 9,300  Level Atlanta TRACON
Fri 06:14:00 PM 33.8063 -84.0157 121° Southeast  Level FlightAware Approximate
Fri 06:14:44 PM 33.6356 -84.0339 88° East 317 365 11,100  Level Atlanta Center
Fri 06:15:00 PM 33.7493 -83.9002 121° Southeast  Level FlightAware Approximate
Fri 06:15:44 PM 33.6419 -83.9292 86° East 317 365 12,700  Level Atlanta Center
Fri 06:16:00 PM 33.8261 -83.8028 64° Northeast  Level Estimated
Fri 06:16:44 PM 33.6478 -83.8042 87° East 347 399 13,600  Level Atlanta Center
Fri 06:17:44 PM 33.6581 -83.6644 85° East 401 461 15,200 1,800 Climbing Atlanta Center
Fri 06:18:44 PM 33.7033 -83.5294 68° East 416 479 17,200 1,750 Climbing Atlanta Center
Fri 06:19:44 PM 33.7592 -83.3967 63° Northeast 436 502 18,700 1,600 Climbing Atlanta Center
Fri 06:20:44 PM 33.8208 -83.2436 64° Northeast 448 516 20,400 1,650 Climbing Atlanta Center
Fri 06:21:44 PM 33.8783 -83.1006 64° Northeast 454 522 22,000 1,500 Climbing Atlanta Center
Fri 06:22:44 PM 33.9356 -82.9572 64° Northeast 468 539 23,400 1,450 Climbing Atlanta Center
Fri 06:23:44 PM 33.9928 -82.8111 65° Northeast 468 539 24,900 1,600 Climbing Atlanta Center
Fri 06:24:44 PM 34.0497 -82.6700 64° Northeast 468 539 26,600 1,600 Climbing Atlanta Center
Fri 06:25:44 PM 34.1042 -82.5286 65° Northeast 468 539 28,100 1,400 Climbing Atlanta Center
Fri 06:26:44 PM 34.1547 -82.4019 64° Northeast 468 539 29,400 1,350 Climbing Atlanta Center
Fri 06:27:44 PM 34.2072 -82.2656 65° Northeast 461 531 30,800 1,100 Climbing Atlanta Center
Fri 06:28:44 PM 34.2636 -82.1311 63° Northeast 449 517 31,600 800 Climbing Atlanta Center
Fri 06:29:44 PM 34.3283 -81.9989 59° Northeast 443 510 32,400 700 Climbing Atlanta Center
Fri 06:30:44 PM 34.3931 -81.8739 58° Northeast 443 510 33,000 300 Climbing Atlanta Center
Fri 06:31:44 PM 34.4553 -81.7439 60° Northeast 443 510 33,000  Level Atlanta Center
Fri 06:32:44 PM 34.5194 -81.6136 59° Northeast 443 510 33,000  Level Atlanta Center
Fri 06:33:44 PM 34.5878 -81.4828 58° Northeast 448 516 33,000  Level Atlanta Center
Fri 06:34:44 PM 34.6578 -81.3392 59° Northeast 444 511 33,000  Level Atlanta Center
Fri 06:35:44 PM 34.7217 -81.2033 60° Northeast 450 518 33,000  Level Atlanta Center
Fri 06:36:44 PM 34.7872 -81.0697 59° Northeast 457 526 33,000  Level Atlanta Center
Fri 06:37:44 PM 34.8528 -80.9381 59° Northeast 449 517 33,000  Level Atlanta Center
Fri 06:38:44 PM 34.9181 -80.8014 60° Northeast 454 522 33,000  Level Atlanta Center
Fri 06:39:44 PM 34.9856 -80.6644 59° Northeast 465 535 33,000  Level Atlanta Center
Fri 06:40:44 PM 35.0425 -80.5403 61° Northeast 465 535 33,000  Level Atlanta Center
Fri 06:41:44 PM 35.1114 -80.4003 59° Northeast 472 543 33,000  Level Atlanta Center
Fri 06:43:44 PM 35.2375 -80.1261 61° Northeast 461 531 33,000  Level Washington Center
Fri 06:44:44 PM 35.2931 -79.9842 64° Northeast 461 531 33,000  Level Washington Center
Fri 06:45:42 PM 35.3400 -79.8342 69° East 461 531 33,000  Level Washington Center
Fri 06:46:43 PM 35.3850 -79.6836 70° East 466 536 33,000  Level Washington Center
Fri 06:47:43 PM 35.4317 -79.5331 69° East 466 536 33,000  Level Washington Center
Fri 06:48:44 PM 35.4783 -79.3872 69° East 459 528 33,000  Level Washington Center
Fri 06:49:44 PM 35.5267 -79.2367 68° East 464 534 33,000  Level Washington Center
Fri 06:50:42 PM 35.5683 -79.1031 69° East 464 534 33,000  Level Washington Center
Fri 06:51:42 PM 35.6189 -78.9417 69° East 464 534 33,000  Level Washington Center
Fri 06:52:43 PM 35.6692 -78.7778 69° East 458 527 33,000  Level Washington Center
Fri 06:53:44 PM 35.7150 -78.6261 70° East 463 533 33,000  Level Washington Center
Fri 06:54:44 PM 35.7583 -78.4742 71° East 463 533 33,000  Level Washington Center
Fri 06:55:42 PM 35.8014 -78.3247 70° East 463 533 33,000  Level Washington Center
Fri 06:56:43 PM 35.8444 -78.1750 70° East 463 533 33,000  Level Washington Center
Fri 06:57:43 PM 35.8872 -78.0250 71° East 463 533 33,000  Level Washington Center
Fri 06:58:43 PM 35.9297 -77.8750 71° East 463 533 33,000  Level Washington Center
Fri 06:59:42 PM 35.9744 -77.7247 70° East 463 533 33,000  Level Washington Center
Fri 07:00:42 PM 36.0433 -77.5958 57° Northeast 452 520 33,000  Level Washington Center
Fri 07:01:43 PM 36.1206 -77.4717 52° Northeast 457 526 33,000  Level Washington Center
Fri 07:02:44 PM 36.1933 -77.3472 54° Northeast 451 519 33,000  Level Washington Center
Fri 07:03:42 PM 36.2475 -77.2069 64° Northeast 443 510 33,000  Level Washington Center
Fri 07:04:43 PM 36.2911 -77.0608 70° East 443 510 33,000  Level Washington Center
Fri 07:05:43 PM 36.3367 -76.9147 69° East 443 510 33,000  Level Washington Center
Fri 07:06:44 PM 36.3819 -76.7711 69° East 449 517 33,000  Level Washington Center
Fri 07:07:42 PM 36.4269 -76.6219 69° East 449 517 33,000  Level Washington Center
Fri 07:08:43 PM 36.4678 -76.4908 69° East 449 517 33,000  Level Washington Center
Fri 07:09:43 PM 36.5125 -76.3414 70° East 449 517 33,000 -50 Level Washington Center
Fri 07:10:44 PM 36.5592 -76.1969 68° East 449 517 32,900 -50 Descending Washington Center
Fri 07:11:42 PM 36.6078 -76.0603 66° East 444 511 32,900 51 Level Washington Center
Fri 07:12:42 PM 36.7125 -75.9908 28° Northeast 401 461 33,000 49 Climbing Washington Center
Fri 07:13:44 PM 36.8272 -75.9447 18° North 401 461 33,000  Level Washington Center
Fri 07:14:44 PM 36.9422 -75.9011 17° North 415 478 33,000  Level Washington Center
Fri 07:15:44 PM 37.0675 -75.8575 16° North 429 494 33,000  Level Washington Center
Fri 07:16:42 PM 37.1822 -75.8133 17° North 424 488 33,000  Level Washington Center
Fri 07:17:42 PM 37.2950 -75.7694 17° North 418 481 33,000  Level Washington Center
Fri 07:18:43 PM 37.4078 -75.7253 17° North 418 481 33,000  Level Washington Center
Fri 07:19:44 PM 37.5225 -75.6783 18° North 418 481 33,000  Level Washington Center
Fri 07:20:42 PM 37.6372 -75.6389 15° North 418 481 33,000  Level Washington Center
Fri 07:21:42 PM 37.7497 -75.5917 18° North 424 488 33,000  Level Washington Center
Fri 07:22:44 PM 37.8667 -75.5444 18° North 424 488 33,000  Level Washington Center
Fri 07:23:42 PM 37.9833 -75.5022 16° North 424 488 33,000  Level Washington Center
Fri 07:24:43 PM 38.0939 -75.4439 23° Northeast 424 488 33,000  Level Washington Center
Fri 07:25:44 PM 38.2064 -75.3803 24° Northeast 424 488 33,000  Level Washington Center
Fri 07:26:44 PM 38.2917 -75.3272 26° Northeast 429 494 33,000  Level Washington Center
Fri 07:27:45 PM 38.4208 -75.2444 27° Northeast 429 494 33,000  Level Washington Center
Fri 07:28:42 PM 38.5269 -75.1669 30° Northeast 429 494 33,000  Level Washington Center
Fri 07:29:44 PM 38.6350 -75.1000 26° Northeast 429 494 33,000  Level Washington Center
Fri 07:30:44 PM 38.7431 -75.0300 27° Northeast 429 494 33,000  Level Washington Center
Fri 07:31:42 PM 38.8511 -74.9600 27° Northeast 429 494 33,000  Level Washington Center
Fri 07:32:42 PM 38.9611 -74.8894 27° Northeast 429 494 33,000  Level Washington Center
Fri 07:33:43 PM 39.0669 -74.8217 26° Northeast 429 494 33,000  Level Washington Center
Fri 07:34:44 PM 39.1664 -74.7322 35° Northeast 429 494 33,000 -1,277 Level Washington Center
Fri 07:36:51 PM 39.3642 -74.5114 41° Northeast 431 496 29,000 -2,540 Descending New York Center
Fri 07:37:53 PM 39.4592 -74.4089 40° Northeast 431 496 25,000 -4,244 Descending New York Center
Fri 07:38:54 PM 39.5564 -74.3008 41° Northeast 442 509 20,300 -3,933 Descending New York Center
Fri 07:39:52 PM 39.6511 -74.1950 41° Northeast 448 516 17,200 -2,390 Descending New York Center
Fri 07:40:52 PM 39.7511 -74.1269 28° Northeast 405 466 15,600 -1,388 Descending New York Center
Fri 07:41:53 PM 39.8403 -74.1475 350° North 364 419 14,400 -1,279 Descending New York Center
Fri 07:42:54 PM 39.9300 -74.1439 North 339 390 13,000 -1,488 Descending New York Center
Fri 07:43:54 PM 39.9769 -74.0322 61° Northeast 287 330 11,400 -1,026 Descending New York Center
Fri 07:44:51 PM 40.0025 -73.9278 72° East 297 342 11,000 -254 Descending New York Center
Fri 07:45:52 PM 40.0322 -73.8289 69° East 297 342 10,900 -545 Descending New York Center
Fri 07:46:52 PM 40.1047 -73.7722 31° Northeast 285 328 9,900 -1,327 Descending New York Center
Fri 07:47:45 PM 40.1667 -73.7167 34° Northeast 291 335 8,400 -1,593 Descending New York TRACON
Fri 07:48:45 PM 40.2333 -73.6667 30° Northeast 291 335 6,900 -1,500 Descending New York TRACON
Fri 07:49:45 PM 40.3000 -73.6167 30° Northeast 288 331 5,400 -1,250 Descending New York TRACON
Fri 07:50:45 PM 40.3500 -73.5333 52° Northeast 284 327 4,400 -684 Descending New York TRACON
Fri 07:51:39 PM 40.4167 -73.5667 339° North 270 311 4,100 -200 Descending New York TRACON
Fri 07:52:45 PM 40.4833 -73.5333 21° North 283 326 4,000 -48 Descending New York TRACON
Fri 07:53:45 PM 40.5500 -73.4667 37° Northeast 250 288 4,000  Level New York TRACON
Fri 07:54:45 PM 40.6000 -73.4167 37° Northeast 239 275 4,000 -50 Level New York TRACON
Fri 07:55:45 PM 40.6500 -73.4000 14° North 238 274 3,900 -500 Descending New York TRACON
Fri 07:56:45 PM 40.7167 -73.4167 349° North 230 265 3,000 -470 Descending New York TRACON
Fri 07:57:40 PM 40.7667 -73.4500 333° Northwest 221 254 3,000 -350 Level New York TRACON
Fri 07:58:45 PM 40.8167 -73.5000 323° Northwest 203 234 2,300 -480 Descending New York TRACON
Fri 07:59:45 PM 40.8167 -73.5667 270° West 181 208 2,000 -150 Descending New York TRACON
Fri 08:00:45 PM 40.7833 -73.6167 229° Southwest 178 205 2,000  Level New York TRACON

Login

Don't have an account? Register now (free) for customized features, flight alerts, and more!